Archival Weather

Sydney Intl

Sydney, Australia (YSSY)

Report from: Sunday, March 19, 2023 7:13 AM AEDT
Current time: Tuesday, February 27, 2024 10:30 PM AEDT

Current weather – Weather history – Daily summaries
Weather forecast

Present weatherFog patches
Temperature21.0°C (69.8°F)
Dew point20.0°C (68.0°F)
Winds 6 kts (3.1 m/s, 6.9 mph) Northwest (310°)
Visibility3.1 mi. (5 km)
Clouds Scattered clouds 200 ft. (61 m)
Altimeter30.03 in.Hg (1017 mB)
Relative humidity94 %
Density altitude891 ft. (272 m)
Remarks Special weather observation
Flight conditions Marginal Visual Meteorological Conditions
Raw dataSPAU31 KWBC 182020 SPECI YSSY 182013Z 31006KT 5000 BCFG SCT002 21/20 Q1017 RF00/0/000/0 BR
An error has occurred. This application may no longer respond until reloaded. Reload 🗙